Stations météo

réclame
Mon MeteoGroup
Cairngorm, Grande-Bretagne (3065): Température de l'air & dewpoint: 20.10.2020 15:00:00 - 26.10.2020 15:00:00 (GMT)Cairngorm, Grande-Bretagne (3065): Vitesse du vent & gusts: 20.10.2020 15:00:00 - 26.10.2020 15:00:00 (GMT)Cairngorm, Grande-Bretagne (3065): Direction du vent: 20.10.2020 15:00:00 - 26.10.2020 15:00:00 (GMT)
Date & Time tt [°C] td [°C] ff [km/h] ff [knt] fx [km/h] fx [knt] dd
26.10.2020 15:00:00 0,2 0,1 48 26 61 33 NW
26.10.2020 14:00:00 1,0 1,0 29 16 - - WNW
26.10.2020 13:00:00 1,0 1,0 31 17 - - W
26.10.2020 12:00:00 1,4 1,3 31 17 - - W
26.10.2020 11:00:00 1,3 1,3 24 13 - - W
26.10.2020 10:00:00 1,4 1,4 18 10 - - WSW
26.10.2020 09:00:00 0,5 0,4 28 15 - - SW
26.10.2020 08:00:00 0,5 0,5 31 17 46 25 SW
26.10.2020 07:00:00 0,5 0,5 35 19 52 28 S
26.10.2020 06:00:00 0,5 0,4 41 22 61 33 SSW
26.10.2020 05:00:00 0,5 0,5 46 25 68 37 SSW
26.10.2020 04:00:00 0,5 0,5 61 33 74 40 S
26.10.2020 03:00:00 0,5 0,4 61 33 83 45 S
26.10.2020 02:00:00 0,0 0,0 72 39 102 55 S
26.10.2020 01:00:00 0,1 0,1 81 44 106 57 S
26.10.2020 00:00:00 0,2 0,2 85 46 109 59 S
25.10.2020 23:00:00 0,0 0,0 93 50 109 59 S
25.10.2020 22:00:00 0,1 0,1 85 46 107 58 S
25.10.2020 21:00:00 0,2 0,1 91 49 109 59 S
25.10.2020 20:00:00 0,1 0,1 87 47 117 63 S
25.10.2020 19:00:00 0,1 0,0 85 46 115 62 S
25.10.2020 18:00:00 0,0 0,0 83 45 115 62 S
25.10.2020 17:00:00 0,0 0,0 85 46 117 63 SSW
25.10.2020 16:00:00 0,0 0,0 81 44 106 57 S
25.10.2020 15:00:00 0,0 0,0 72 39 104 56 SSW
25.10.2020 14:00:00 0,0 0,0 76 41 104 56 S
25.10.2020 13:00:00 -0,3 -0,3 83 45 107 58 S
25.10.2020 12:00:00 -0,8 -0,8 78 42 100 54 SSW
25.10.2020 11:00:00 -0,7 -0,7 72 39 106 57 S
25.10.2020 10:00:00 -0,8 -0,8 81 44 113 61 S
25.10.2020 09:00:00 -0,8 -0,8 80 43 106 57 S
25.10.2020 08:00:00 -0,9 -0,9 85 46 111 60 S
25.10.2020 07:00:00 -0,5 -0,5 89 48 107 58 S
25.10.2020 06:00:00 -0,9 -0,9 94 51 113 61 S
25.10.2020 05:00:00 -0,4 -0,4 87 47 111 60 S
25.10.2020 04:00:00 -0,3 -0,3 87 47 111 60 S
25.10.2020 03:00:00 -1,3 -1,3 83 45 107 58 S
25.10.2020 02:00:00 -1,2 -1,2 81 44 107 58 S
25.10.2020 01:00:00 -1,4 -1,4 83 45 111 60 S
25.10.2020 00:00:00 - - - - - - -
24.10.2020 23:00:00 -1,7 -1,8 91 49 104 56 S
24.10.2020 22:00:00 -1,6 -1,6 78 42 94 51 SSW
24.10.2020 21:00:00 -1,4 -1,4 70 38 87 47 SSW
24.10.2020 20:00:00 -0,7 -0,7 63 34 85 46 S
24.10.2020 19:00:00 -0,8 -0,8 70 38 81 44 S
24.10.2020 18:00:00 -0,7 -0,7 59 32 78 42 S
24.10.2020 17:00:00 -0,9 -0,9 59 32 83 45 SSW
24.10.2020 16:00:00 -0,8 -0,8 65 35 98 53 SSW
24.10.2020 15:00:00 -0,9 -0,9 68 37 100 54 SSW
24.10.2020 14:00:00 -0,5 -0,5 67 36 91 49 SSW
24.10.2020 13:00:00 0,1 0,1 57 31 100 54 SSW
24.10.2020 12:00:00 -0,3 -0,4 70 38 104 56 SSW
24.10.2020 11:00:00 -0,4 -0,4 61 33 102 55 SSW
24.10.2020 10:00:00 -0,2 -0,3 57 31 100 54 SW
24.10.2020 09:00:00 -0,6 -0,6 89 48 143 77 WSW
24.10.2020 08:00:00 -0,2 -0,3 70 38 141 76 WSW
24.10.2020 07:00:00 2,4 2,4 102 55 130 70 S
24.10.2020 06:00:00 1,3 1,3 106 57 156 84 S
24.10.2020 05:00:00 0,6 0,6 126 68 169 91 S
24.10.2020 04:00:00 0,0 0,0 141 76 167 90 S
24.10.2020 03:00:00 -0,4 -0,4 119 64 144 78 S
24.10.2020 02:00:00 -0,9 -0,9 106 57 137 74 S
24.10.2020 01:00:00 -1,0 -1,0 94 51 120 65 S
24.10.2020 00:00:00 -0,3 -0,3 96 52 122 66 S
23.10.2020 23:00:00 -1,4 -1,4 57 31 80 43 S
23.10.2020 22:00:00 -1,4 -1,4 50 27 78 42 S
23.10.2020 21:00:00 -1,4 -1,4 50 27 63 34 SSW
23.10.2020 20:00:00 -1,6 -1,6 52 28 89 48 SW
23.10.2020 19:00:00 -1,5 -1,5 67 36 93 50 WSW
23.10.2020 18:00:00 -1,5 -1,5 63 34 93 50 WSW
23.10.2020 17:00:00 -1,6 -1,6 52 28 70 38 WSW
23.10.2020 16:00:00 -1,3 -1,3 52 28 80 43 WSW
23.10.2020 15:00:00 -0,9 -0,9 55 30 76 41 W
23.10.2020 14:00:00 -0,8 -0,8 48 26 74 40 W
23.10.2020 13:00:00 -0,8 -0,8 55 30 78 42 W
23.10.2020 12:00:00 -0,8 -0,8 52 28 81 44 W
23.10.2020 11:00:00 -1,0 -1,0 42 23 72 39 W
23.10.2020 10:00:00 -0,8 -0,8 55 30 70 38 WSW
23.10.2020 09:00:00 -0,5 -0,5 46 25 67 36 SSW
23.10.2020 08:00:00 -0,4 -0,4 48 26 83 45 S
23.10.2020 07:00:00 -0,3 -0,3 59 32 74 40 S
23.10.2020 06:00:00 -0,7 -0,8 61 33 81 44 S
23.10.2020 05:00:00 -0,8 -0,8 63 34 81 44 S
23.10.2020 04:00:00 -0,7 -0,7 54 29 72 39 SSW
23.10.2020 03:00:00 -1,0 -1,0 52 28 80 43 SSW
23.10.2020 02:00:00 -1,6 -1,6 48 26 74 40 SSW
23.10.2020 01:00:00 -0,7 -0,8 52 28 63 34 SSW
23.10.2020 00:00:00 -1,6 -1,6 34 18 54 29 SW
22.10.2020 23:00:00 -1,3 -1,3 41 22 52 28 SSW
22.10.2020 22:00:00 -0,7 -0,7 39 21 46 25 SSW
22.10.2020 21:00:00 0,8 0,8 22 12 - - SSW
22.10.2020 20:00:00 1,4 1,3 26 14 - - SSW
22.10.2020 19:00:00 1,2 1,2 21 11 - - S
22.10.2020 18:00:00 0,9 0,9 22 12 - - SSW
22.10.2020 17:00:00 1,2 1,2 21 11 - - SW
22.10.2020 16:00:00 1,0 1,0 16 9 - - SSW
22.10.2020 15:00:00 0,9 0,9 8 4 - - WSW
22.10.2020 14:00:00 0,6 0,6 11 6 - - N
22.10.2020 13:00:00 0,9 0,9 18 10 - - N
22.10.2020 12:00:00 0,9 0,9 18 10 - - N
22.10.2020 11:00:00 0,7 0,7 31 17 - - N
22.10.2020 10:00:00 0,8 0,8 37 20 - - N
22.10.2020 09:00:00 1,2 1,1 35 19 50 27 N
22.10.2020 08:00:00 0,8 0,8 42 23 57 31 N
22.10.2020 07:00:00 1,0 1,0 42 23 65 35 N
22.10.2020 06:00:00 1,3 1,3 42 23 59 32 N
22.10.2020 05:00:00 1,8 1,7 42 23 57 31 N
22.10.2020 04:00:00 2,4 2,4 39 21 55 30 N
22.10.2020 03:00:00 3,1 3,1 29 16 - - N
22.10.2020 02:00:00 3,9 3,9 24 13 - - NNE
22.10.2020 01:00:00 3,9 3,9 21 11 - - NE
22.10.2020 00:00:00 4,2 4,1 11 6 - - NE
21.10.2020 23:00:00 4,1 4,0 9 5 - - NE
21.10.2020 22:00:00 4,1 4,1 13 7 - - E
21.10.2020 21:00:00 4,1 4,1 15 8 - - ENE
21.10.2020 20:00:00 4,4 4,4 15 8 - - NE
21.10.2020 19:00:00 4,3 4,3 13 7 - - ENE
21.10.2020 18:00:00 4,4 4,4 16 9 - - NE
21.10.2020 17:00:00 4,4 4,4 16 9 - - NE
21.10.2020 16:00:00 4,5 4,5 8 4 - - E
21.10.2020 15:00:00 4,7 4,7 8 4 - - SE
21.10.2020 14:00:00 4,7 4,6 15 8 - - SE
21.10.2020 13:00:00 4,5 4,5 18 10 - - SSE
21.10.2020 12:00:00 4,5 4,5 18 10 - - SSE
21.10.2020 11:00:00 4,5 4,5 26 14 - - SSE
21.10.2020 10:00:00 4,2 4,2 26 14 - - SSE
21.10.2020 09:00:00 4,0 3,9 31 17 52 28 S
21.10.2020 08:00:00 3,8 3,7 46 25 78 42 S
21.10.2020 07:00:00 3,4 3,4 54 29 78 42 S
21.10.2020 06:00:00 3,8 3,8 70 38 83 45 S
21.10.2020 05:00:00 4,0 4,0 67 36 81 44 S
21.10.2020 04:00:00 4,4 4,4 63 34 81 44 S
21.10.2020 03:00:00 4,5 4,5 57 31 78 42 S
21.10.2020 02:00:00 4,5 4,4 48 26 72 39 S
21.10.2020 01:00:00 4,4 4,4 46 25 72 39 SSE
21.10.2020 00:00:00 4,6 4,5 37 20 63 34 SSE
20.10.2020 23:00:00 4,5 4,4 52 28 65 35 SSE
20.10.2020 22:00:00 4,2 4,2 50 27 78 42 SSE
20.10.2020 21:00:00 4,1 4,1 57 31 81 44 S
20.10.2020 20:00:00 4,3 4,3 59 32 72 39 S
20.10.2020 19:00:00 4,8 4,7 46 25 68 37 S
20.10.2020 18:00:00 4,6 4,6 50 27 65 35 S
20.10.2020 17:00:00 4,5 4,5 39 21 55 30 SSE
20.10.2020 16:00:00 4,2 4,2 18 10 - - S
20.10.2020 15:00:00 4,3 4,3 22 12 - - SSW

tt = Température de l'air
td = dewpoint
ff = Vitesse du vent
fx = gusts
dd = Direction du vent

stations d'obs. à proximité